createdAt,value
2023-04-13T00:01:32.875Z,8.87
2023-04-13T00:04:23.318Z,8.93
2023-04-13T00:07:14.854Z,8.92
2023-04-13T00:10:03.548Z,8.92
2023-04-13T00:12:52.097Z,8.86
2023-04-13T00:15:42.961Z,8.69
2023-04-13T00:18:31.912Z,8.66
2023-04-13T00:21:21.779Z,8.85
2023-04-13T00:24:10.245Z,8.77
2023-04-13T00:26:58.737Z,8.84
2023-04-13T00:29:47.226Z,8.84
2023-04-13T00:32:35.940Z,8.79
2023-04-13T00:35:25.241Z,8.79
2023-04-13T00:38:15.239Z,8.80
2023-04-13T00:41:04.357Z,8.82
2023-04-13T00:43:53.598Z,8.92
2023-04-13T00:46:42.549Z,8.87
2023-04-13T00:49:31.550Z,8.95
2023-04-13T00:52:21.277Z,8.97
2023-04-13T00:55:11.301Z,8.94
2023-04-13T00:58:01.463Z,8.93
2023-04-13T01:00:49.986Z,8.94
2023-04-13T01:03:39.858Z,8.92
2023-04-13T01:06:33.859Z,8.97
2023-04-13T01:09:27.772Z,8.89
2023-04-13T01:12:21.053Z,8.83
2023-04-13T01:15:12.717Z,8.81
2023-04-13T01:18:05.308Z,8.85
2023-04-13T01:20:54.840Z,8.76
2023-04-13T01:23:52.300Z,8.79
2023-04-13T01:26:51.122Z,8.76
2023-04-13T01:29:41.901Z,8.73
2023-04-13T01:32:30.836Z,8.71
2023-04-13T01:35:20.202Z,8.88
2023-04-13T01:38:08.808Z,8.91
2023-04-13T01:40:57.310Z,8.79
2023-04-13T01:43:46.224Z,8.82
2023-04-13T01:46:37.763Z,8.91
2023-04-13T01:49:26.478Z,8.85
2023-04-13T01:52:15.212Z,8.74
2023-04-13T01:55:04.607Z,8.88
2023-04-13T01:57:55.986Z,8.80
2023-04-13T02:00:44.579Z,8.79
2023-04-13T02:03:36.070Z,8.79
2023-04-13T02:06:24.804Z,8.86
2023-04-13T02:09:13.331Z,8.87
2023-04-13T02:12:02.043Z,8.80
2023-04-13T02:14:50.522Z,8.75
2023-04-13T02:17:39.292Z,8.81
2023-04-13T02:20:30.559Z,8.77
2023-04-13T02:23:19.852Z,8.81
2023-04-13T02:26:08.748Z,8.76
2023-04-13T02:28:57.863Z,8.87
2023-04-13T02:31:46.568Z,8.95
2023-04-13T02:34:35.511Z,8.68
2023-04-13T02:37:25.749Z,8.92
2023-04-13T02:40:14.372Z,8.84
2023-04-13T02:43:04.327Z,8.90
2023-04-13T02:45:53.198Z,9.10
2023-04-13T02:48:42.055Z,9.06
2023-04-13T02:51:30.705Z,9.12
2023-04-13T02:54:20.712Z,9.12
2023-04-13T02:57:10.537Z,9.02
2023-04-13T02:59:59.444Z,9.08
2023-04-13T03:02:48.167Z,9.05
2023-04-13T03:05:37.356Z,9.08
2023-04-13T03:08:25.872Z,9.16
2023-04-13T03:11:16.744Z,8.92
2023-04-13T03:14:05.227Z,9.16
2023-04-13T03:16:54.666Z,9.07
2023-04-13T03:19:46.564Z,9.06
2023-04-13T03:22:36.317Z,8.99
2023-04-13T03:25:24.834Z,9.06
2023-04-13T03:28:14.850Z,8.95
2023-04-13T03:31:03.800Z,8.94
2023-04-13T03:33:52.406Z,8.97
2023-04-13T03:36:40.836Z,8.96
2023-04-13T03:39:30.103Z,8.84
2023-04-13T03:42:18.639Z,8.93
2023-04-13T03:45:09.986Z,8.98
2023-04-13T03:47:58.547Z,9.01
2023-04-13T03:50:47.094Z,9.02
2023-04-13T03:53:37.133Z,8.89
2023-04-13T03:56:25.677Z,8.91
2023-04-13T03:59:14.136Z,8.91
2023-04-13T04:02:04.088Z,8.90
2023-04-13T04:04:52.951Z,8.88
2023-04-13T04:07:41.503Z,8.88
2023-04-13T04:10:30.060Z,8.86
2023-04-13T04:13:18.528Z,8.90
2023-04-13T04:16:08.852Z,8.86
2023-04-13T04:18:58.727Z,8.99
2023-04-13T04:21:47.694Z,8.92
2023-04-13T04:24:36.301Z,8.80
2023-04-13T04:27:26.274Z,8.79
2023-04-13T04:30:14.873Z,8.85
2023-04-13T04:33:03.581Z,8.93
2023-04-13T04:35:54.097Z,8.84
2023-04-13T04:38:42.587Z,8.79
2023-04-13T04:41:31.539Z,8.91
2023-04-13T04:44:20.243Z,8.92
2023-04-13T04:47:09.278Z,8.94
2023-04-13T04:49:58.573Z,8.90
2023-04-13T04:52:48.438Z,8.83
2023-04-13T04:55:36.873Z,8.89
2023-04-13T04:58:25.348Z,8.90
2023-04-13T05:01:13.828Z,8.85
2023-04-13T05:04:02.478Z,8.92
2023-04-13T05:06:50.943Z,8.90
2023-04-13T05:09:41.055Z,8.94
2023-04-13T05:12:29.526Z,7.92
2023-04-13T05:15:18.111Z,9.07
2023-04-13T05:18:06.863Z,9.02
2023-04-13T05:20:55.363Z,8.96
2023-04-13T05:23:44.562Z,8.90
2023-04-13T05:26:35.277Z,8.91
2023-04-13T05:29:23.918Z,8.97
2023-04-13T05:32:12.339Z,8.94
2023-04-13T05:35:00.809Z,9.08
2023-04-13T05:37:49.283Z,8.94
2023-04-13T05:40:38.166Z,8.91
2023-04-13T05:43:28.056Z,9.01
2023-04-13T05:46:16.980Z,7.65
2023-04-13T05:49:05.494Z,9.15
2023-04-13T05:51:54.693Z,9.07
2023-04-13T05:54:43.157Z,9.04
2023-04-13T05:57:31.649Z,9.00
2023-04-13T06:00:22.330Z,9.01
2023-04-13T06:03:11.007Z,8.97
2023-04-13T06:06:00.354Z,8.95
2023-04-13T06:08:49.483Z,8.93
2023-04-13T06:11:37.952Z,8.91
2023-04-13T06:14:26.509Z,8.96
2023-04-13T06:17:16.282Z,9.00
2023-04-13T06:20:07.171Z,9.03
2023-04-13T06:22:55.665Z,9.05
2023-04-13T06:25:44.877Z,8.86
2023-04-13T06:28:33.573Z,9.05
2023-04-13T06:31:23.344Z,9.09
2023-04-13T06:34:13.765Z,9.04
2023-04-13T06:37:03.037Z,9.08
2023-04-13T06:39:51.599Z,9.22
2023-04-13T06:42:41.078Z,9.32
2023-04-13T06:45:30.946Z,9.46
2023-04-13T06:48:19.458Z,9.57
2023-04-13T06:51:09.528Z,9.62
2023-04-13T06:53:58.035Z,9.61
2023-04-13T06:56:46.617Z,9.76
2023-04-13T06:59:35.092Z,9.74
2023-04-13T07:02:23.767Z,9.76
2023-04-13T07:05:13.296Z,9.89
2023-04-13T07:08:03.169Z,10.00
2023-04-13T07:10:53.991Z,10.07
2023-04-13T07:13:42.595Z,9.97
2023-04-13T07:16:31.137Z,10.07
2023-04-13T07:19:23.649Z,10.11
2023-04-13T07:22:12.242Z,10.03
2023-04-13T07:25:02.408Z,10.04
2023-04-13T07:27:50.881Z,10.04
2023-04-13T07:30:44.080Z,9.81
2023-04-13T07:33:32.781Z,10.95
2023-04-13T07:36:23.577Z,11.27
2023-04-13T07:39:12.258Z,11.26
2023-04-13T07:42:02.775Z,11.43
2023-04-13T07:44:52.534Z,11.44
2023-04-13T07:47:41.457Z,11.49
2023-04-13T07:50:29.978Z,11.87
2023-04-13T07:53:18.474Z,12.27
2023-04-13T07:56:08.089Z,12.15
2023-04-13T07:58:58.444Z,12.06
2023-04-13T08:01:47.110Z,12.16
2023-04-13T08:04:36.093Z,12.60
2023-04-13T08:07:24.714Z,12.93
2023-04-13T08:10:13.271Z,12.97
2023-04-13T08:13:01.847Z,12.58
2023-04-13T08:15:51.760Z,12.55
2023-04-13T08:18:40.232Z,12.25
2023-04-13T08:21:29.775Z,12.21
2023-04-13T08:24:20.632Z,11.58
2023-04-13T08:27:10.090Z,11.69
2023-04-13T08:30:01.886Z,11.47
2023-04-13T08:32:53.735Z,11.15
2023-04-13T08:35:42.300Z,11.08
2023-04-13T08:38:30.777Z,10.91
2023-04-13T08:41:21.462Z,10.70
2023-04-13T08:44:09.971Z,10.92
2023-04-13T08:46:58.492Z,11.15
2023-04-13T08:49:49.842Z,11.22
2023-04-13T08:52:38.802Z,11.26
2023-04-13T08:55:27.457Z,11.08
2023-04-13T08:58:19.698Z,11.17
2023-04-13T09:01:08.409Z,11.14
2023-04-13T09:04:03.481Z,11.11
2023-04-13T09:06:53.733Z,11.16
2023-04-13T09:09:43.948Z,10.92
2023-04-13T09:12:33.438Z,10.69
2023-04-13T09:15:22.219Z,10.81
2023-04-13T09:18:12.552Z,10.90
2023-04-13T09:21:01.658Z,11.04
2023-04-13T09:23:58.776Z,10.97
2023-04-13T09:26:48.536Z,10.78
2023-04-13T09:29:37.145Z,10.84
2023-04-13T09:32:27.238Z,11.13
2023-04-13T09:35:15.763Z,11.21
2023-04-13T09:38:05.094Z,11.17
2023-04-13T09:40:54.942Z,11.34
2023-04-13T09:43:43.456Z,11.36
2023-04-13T09:46:32.167Z,11.04
2023-04-13T09:49:20.646Z,11.13
2023-04-13T09:52:19.629Z,11.25
2023-04-13T09:55:16.628Z,11.17
2023-04-13T09:58:13.997Z,11.52
2023-04-13T10:01:02.588Z,11.90
2023-04-13T10:03:51.247Z,12.11
2023-04-13T10:06:40.802Z,12.02
2023-04-13T10:09:29.301Z,12.04
2023-04-13T10:12:17.972Z,12.03
2023-04-13T10:15:14.060Z,12.26
2023-04-13T10:18:10.951Z,12.34
2023-04-13T10:21:00.502Z,11.76
2023-04-13T10:23:49.086Z,11.99
2023-04-13T10:26:37.924Z,12.27
2023-04-13T10:29:29.846Z,12.77
2023-04-13T10:32:24.136Z,12.55
2023-04-13T10:35:15.185Z,12.65
2023-04-13T10:38:04.026Z,12.58
2023-04-13T10:40:52.651Z,12.28
2023-04-13T10:43:41.151Z,12.38
2023-04-13T10:46:30.121Z,12.27
2023-04-13T10:49:20.011Z,12.39
2023-04-13T10:52:09.738Z,12.46
2023-04-13T10:54:58.264Z,12.35
2023-04-13T10:57:46.796Z,12.40
2023-04-13T11:00:44.783Z,12.48
2023-04-13T11:03:36.595Z,12.80
2023-04-13T11:06:27.083Z,13.09
2023-04-13T11:09:17.259Z,13.19
2023-04-13T11:12:07.478Z,13.27
2023-04-13T11:14:55.950Z,13.31
2023-04-13T11:17:44.424Z,13.47
2023-04-13T11:20:33.593Z,13.65
2023-04-13T11:23:24.376Z,13.51
2023-04-13T11:26:14.635Z,13.33
2023-04-13T11:29:03.901Z,12.82
2023-04-13T11:31:52.431Z,12.42
2023-04-13T11:34:40.920Z,12.33
2023-04-13T11:37:29.387Z,12.33
2023-04-13T11:40:22.822Z,12.43
2023-04-13T11:43:11.446Z,12.81
2023-04-13T11:46:00.397Z,12.64
2023-04-13T11:48:48.911Z,12.46
2023-04-13T11:51:38.919Z,12.31
2023-04-13T11:54:27.494Z,12.39
2023-04-13T11:57:18.097Z,12.46
2023-04-13T12:00:13.611Z,12.52
2023-04-13T12:03:11.802Z,12.56
2023-04-13T12:06:12.806Z,12.37
2023-04-13T12:09:09.296Z,12.72
2023-04-13T12:12:34.569Z,13.27
2023-04-13T12:15:25.086Z,13.25
2023-04-13T12:21:14.227Z,12.82
2023-04-13T12:24:05.792Z,12.89
2023-04-13T12:29:46.344Z,13.85
2023-04-13T12:32:41.028Z,13.81
2023-04-13T12:35:29.573Z,13.62
2023-04-13T12:38:18.079Z,13.38
2023-04-13T12:41:09.610Z,13.15
2023-04-13T12:43:58.131Z,13.18
2023-04-13T12:46:46.800Z,12.90
2023-04-13T12:49:36.668Z,12.54
2023-04-13T12:52:28.514Z,12.56
2023-04-13T12:55:17.901Z,12.72
2023-04-13T12:58:06.475Z,12.70
2023-04-13T13:00:55.154Z,12.55
2023-04-13T13:03:45.137Z,12.62
2023-04-13T13:06:35.387Z,12.97
2023-04-13T13:09:24.035Z,13.17
2023-04-13T13:12:12.755Z,13.26
2023-04-13T13:15:01.804Z,13.37
2023-04-13T13:17:50.377Z,13.43
2023-04-13T13:20:41.242Z,13.68
2023-04-13T13:23:31.233Z,13.80
2023-04-13T13:29:11.157Z,13.35
2023-04-13T13:31:59.952Z,13.03
2023-04-13T13:34:48.536Z,12.81
2023-04-13T13:37:37.040Z,12.53
2023-04-13T13:40:27.057Z,11.63
2023-04-13T13:43:17.896Z,11.36
2023-04-13T13:46:06.799Z,11.15
2023-04-13T13:48:55.413Z,11.25
2023-04-13T13:51:43.998Z,11.60
2023-04-13T13:54:32.480Z,11.62
2023-04-13T13:57:22.288Z,11.95
2023-04-13T14:00:16.934Z,12.14
2023-04-13T14:03:05.721Z,12.25
2023-04-13T14:05:54.251Z,12.45
2023-04-13T14:08:42.745Z,12.49
2023-04-13T14:11:31.342Z,12.54
2023-04-13T14:14:22.687Z,12.84
2023-04-13T14:17:11.308Z,13.18
2023-04-13T14:19:59.811Z,13.24
2023-04-13T14:22:48.263Z,13.05
2023-04-13T14:25:36.767Z,12.87
2023-04-13T14:28:25.216Z,12.96
2023-04-13T14:31:16.125Z,12.99
2023-04-13T14:34:04.660Z,13.06
2023-04-13T14:36:54.429Z,13.19
2023-04-13T14:39:42.986Z,13.37
2023-04-13T14:42:31.691Z,13.68
2023-04-13T14:45:20.311Z,13.75
2023-04-13T14:48:10.234Z,13.75
2023-04-13T14:50:58.881Z,13.93
2023-04-13T14:53:47.460Z,13.97
2023-04-13T14:56:36.688Z,13.90
2023-04-13T14:59:25.591Z,13.82
2023-04-13T15:02:14.806Z,14.00
2023-04-13T15:05:06.595Z,13.97
2023-04-13T15:07:55.700Z,14.00
2023-04-13T15:10:44.315Z,14.18
2023-04-13T15:13:32.907Z,14.29
2023-04-13T15:16:21.399Z,14.11
2023-04-13T15:19:09.961Z,14.02
2023-04-13T15:21:59.832Z,13.98
2023-04-13T15:24:48.683Z,13.93
2023-04-13T15:27:37.242Z,13.84
2023-04-13T15:30:27.226Z,13.75
2023-04-13T15:33:15.735Z,13.40
2023-04-13T15:36:04.296Z,13.34
2023-04-13T15:38:54.148Z,13.18
2023-04-13T15:41:42.643Z,13.04
2023-04-13T15:44:31.172Z,13.02
2023-04-13T15:47:19.605Z,12.93
2023-04-13T15:50:09.606Z,12.92
2023-04-13T15:52:58.111Z,12.90
2023-04-13T15:55:48.449Z,12.83
2023-04-13T15:58:36.983Z,12.86
2023-04-13T16:01:25.564Z,12.55
2023-04-13T16:04:14.425Z,12.11
2023-04-13T16:07:12.880Z,11.76
2023-04-13T16:10:02.880Z,11.64
2023-04-13T16:12:54.708Z,11.50
2023-04-13T16:15:44.449Z,11.25
2023-04-13T16:18:35.836Z,11.23
2023-04-13T16:21:24.653Z,11.18
2023-04-13T16:24:13.310Z,11.22
2023-04-13T16:27:02.143Z,11.08
2023-04-13T16:29:52.095Z,11.08
2023-04-13T16:32:42.459Z,11.04
2023-04-13T16:35:31.413Z,11.08
2023-04-13T16:38:19.959Z,11.08
2023-04-13T16:41:08.528Z,11.15
2023-04-13T16:43:58.732Z,11.19
2023-04-13T16:46:48.618Z,11.10
2023-04-13T16:49:37.096Z,10.99
2023-04-13T16:52:26.103Z,11.02
2023-04-13T16:55:15.070Z,10.92
2023-04-13T16:58:03.596Z,10.93
2023-04-13T17:00:53.546Z,10.91
2023-04-13T17:03:43.655Z,10.82
2023-04-13T17:06:32.502Z,10.94
2023-04-13T17:09:21.018Z,10.92
2023-04-13T17:12:09.508Z,10.90
2023-04-13T17:14:58.490Z,10.94
2023-04-13T17:17:47.149Z,11.03
2023-04-13T17:20:37.239Z,11.04
2023-04-13T17:23:25.730Z,11.09
2023-04-13T17:26:14.311Z,11.03
2023-04-13T17:29:02.797Z,11.19
2023-04-13T17:31:51.726Z,11.03
2023-04-13T17:34:40.241Z,11.07
2023-04-13T17:37:30.387Z,10.82
2023-04-13T17:40:20.452Z,10.91
2023-04-13T17:43:09.519Z,10.62
2023-04-13T17:45:58.198Z,10.54
2023-04-13T17:48:46.720Z,10.55
2023-04-13T17:51:35.294Z,10.36
2023-04-13T17:54:26.213Z,10.41
2023-04-13T17:57:14.722Z,10.36
2023-04-13T18:00:03.366Z,10.26
2023-04-13T18:02:52.033Z,10.30
2023-04-13T18:05:44.349Z,10.32
2023-04-13T18:08:33.248Z,9.98
2023-04-13T18:11:23.089Z,10.31
2023-04-13T18:14:12.311Z,10.31
2023-04-13T18:17:01.035Z,10.28
2023-04-13T18:19:52.837Z,10.31
2023-04-13T18:22:41.276Z,10.33
2023-04-13T18:25:29.694Z,10.25
2023-04-13T18:28:19.646Z,10.20
2023-04-13T18:31:09.233Z,10.20
2023-04-13T18:33:58.375Z,10.17
2023-04-13T18:36:47.347Z,9.99
2023-04-13T18:39:35.931Z,9.99
2023-04-13T18:42:24.414Z,9.95
2023-04-13T18:45:14.266Z,9.88
2023-04-13T18:48:03.257Z,9.70
2023-04-13T18:50:51.937Z,9.57
2023-04-13T18:53:40.568Z,9.45
2023-04-13T18:56:29.036Z,9.26
2023-04-13T18:59:17.531Z,9.51
2023-04-13T19:02:07.494Z,9.54
2023-04-13T19:04:56.106Z,9.52
2023-04-13T19:07:49.612Z,9.49
2023-04-13T19:10:38.110Z,9.45
2023-04-13T19:13:26.582Z,9.43
2023-04-13T19:16:15.396Z,9.29
2023-04-13T19:19:05.573Z,9.31
2023-04-13T19:21:54.234Z,9.30
2023-04-13T19:24:42.725Z,9.30
2023-04-13T19:27:31.685Z,9.34
2023-04-13T19:30:20.257Z,9.22
2023-04-13T19:33:08.741Z,9.18
2023-04-13T19:35:58.593Z,9.03
2023-04-13T19:38:47.110Z,9.02
2023-04-13T19:41:36.863Z,8.73
2023-04-13T19:44:26.017Z,8.86
2023-04-13T19:47:14.544Z,8.78
2023-04-13T19:50:03.016Z,8.73
2023-04-13T19:52:53.085Z,8.65
2023-04-13T19:55:41.593Z,8.54
2023-04-13T19:58:30.017Z,8.39
2023-04-13T20:01:18.638Z,8.25
2023-04-13T20:04:12.991Z,8.08
2023-04-13T20:07:01.639Z,7.98
2023-04-13T20:09:51.636Z,7.92
2023-04-13T20:12:40.324Z,7.87
2023-04-13T20:15:30.923Z,7.80
2023-04-13T20:18:19.622Z,7.80
2023-04-13T20:21:08.167Z,7.77
2023-04-13T20:23:56.833Z,7.69
2023-04-13T20:26:47.094Z,7.64
2023-04-13T20:29:35.667Z,7.72
2023-04-13T20:32:24.184Z,7.64
2023-04-13T20:35:12.749Z,7.70
2023-04-13T20:38:01.234Z,7.67
2023-04-13T20:40:49.849Z,7.71
2023-04-13T20:43:40.956Z,7.67
2023-04-13T20:46:34.210Z,7.49
2023-04-13T20:49:24.158Z,7.66
2023-04-13T20:52:14.096Z,7.58
2023-04-13T20:55:02.636Z,7.52
2023-04-13T20:57:51.700Z,7.35
2023-04-13T21:00:43.527Z,7.06
2023-04-13T21:03:32.446Z,7.03
2023-04-13T21:06:22.815Z,6.97
2023-04-13T21:09:11.469Z,6.95
2023-04-13T21:11:59.896Z,6.90
2023-04-13T21:14:48.335Z,6.85
2023-04-13T21:17:38.402Z,6.76
2023-04-13T21:20:26.857Z,6.69
2023-04-13T21:23:15.282Z,6.72
2023-04-13T21:26:03.847Z,6.71
2023-04-13T21:28:52.641Z,6.72
2023-04-13T21:31:41.295Z,6.69
2023-04-13T21:34:32.278Z,6.74
2023-04-13T21:37:20.780Z,6.75
2023-04-13T21:40:12.533Z,6.71
2023-04-13T21:43:01.035Z,6.71
2023-04-13T21:45:50.255Z,6.71
2023-04-13T21:48:38.931Z,6.75
2023-04-13T21:51:28.773Z,6.68
2023-04-13T21:54:17.264Z,6.59
2023-04-13T21:57:05.828Z,6.49
2023-04-13T21:59:54.452Z,6.40
2023-04-13T22:02:43.104Z,6.43
2023-04-13T22:05:31.700Z,6.36
2023-04-13T22:08:21.654Z,6.30
2023-04-13T22:11:10.713Z,6.24
2023-04-13T22:14:00.224Z,6.10
2023-04-13T22:16:48.946Z,6.01
2023-04-13T22:19:37.493Z,5.98
2023-04-13T22:22:26.938Z,5.79
2023-04-13T22:25:16.781Z,5.84
2023-04-13T22:28:05.454Z,5.76
2023-04-13T22:30:54.061Z,5.43
2023-04-13T22:33:42.662Z,5.72
2023-04-13T22:36:31.116Z,5.77
2023-04-13T22:39:19.588Z,5.75
2023-04-13T22:42:09.425Z,5.69
2023-04-13T22:44:57.973Z,5.72
2023-04-13T22:47:46.514Z,5.66
2023-04-13T22:50:37.196Z,5.52
2023-04-13T22:53:25.956Z,5.30
2023-04-13T22:56:14.504Z,5.44
2023-04-13T22:59:04.288Z,5.21
2023-04-13T23:01:52.932Z,5.45
2023-04-13T23:04:41.586Z,5.49
2023-04-13T23:07:30.268Z,5.54
2023-04-13T23:10:19.003Z,5.52
2023-04-13T23:13:07.582Z,5.54
2023-04-13T23:16:01.655Z,5.50
2023-04-13T23:18:50.312Z,5.50
2023-04-13T23:21:38.795Z,5.48
2023-04-13T23:24:28.367Z,5.45
2023-04-13T23:27:16.950Z,5.43
2023-04-13T23:30:06.497Z,5.41
2023-04-13T23:32:56.516Z,5.51
2023-04-13T23:35:52.570Z,5.49
2023-04-13T23:38:41.091Z,5.51
2023-04-13T23:41:29.553Z,5.45
2023-04-13T23:44:18.050Z,5.44
2023-04-13T23:47:07.056Z,5.35
2023-04-13T23:49:56.993Z,5.29
2023-04-13T23:52:45.654Z,5.29
2023-04-13T23:55:34.171Z,5.24
2023-04-13T23:58:22.701Z,5.19
